createdAt,value
2022-11-04T00:02:18.086Z,-2.19
2022-11-04T00:04:46.102Z,-2.17
2022-11-04T00:07:32.429Z,-2.16
2022-11-04T00:10:01.436Z,-2.15
2022-11-04T00:12:31.415Z,-2.18
2022-11-04T00:15:20.944Z,-2.24
2022-11-04T00:17:48.599Z,-2.29
2022-11-04T00:20:36.724Z,-2.31
2022-11-04T00:23:22.999Z,-2.33
2022-11-04T00:26:09.238Z,-2.32
2022-11-04T00:28:45.988Z,-2.32
2022-11-04T00:31:32.397Z,-2.32
2022-11-04T00:34:00.437Z,-2.28
2022-11-04T00:36:28.385Z,-2.28
2022-11-04T00:38:57.443Z,-2.31
2022-11-04T00:41:28.705Z,-2.37
2022-11-04T00:43:58.705Z,-2.29
2022-11-04T00:46:29.656Z,-2.31
2022-11-04T00:48:58.806Z,-2.35
2022-11-04T00:51:27.305Z,-2.39
2022-11-04T00:53:56.220Z,-2.43
2022-11-04T00:56:25.009Z,-2.48
2022-11-04T00:58:53.082Z,-2.57
2022-11-04T01:01:21.759Z,-2.57
2022-11-04T01:03:52.382Z,-2.62
2022-11-04T01:06:22.636Z,-2.63
2022-11-04T01:08:52.128Z,-2.68
2022-11-04T01:11:19.961Z,-2.61
2022-11-04T01:13:52.301Z,-2.66
2022-11-04T01:16:21.286Z,-2.70
2022-11-04T01:18:49.502Z,-2.77
2022-11-04T01:21:18.419Z,-2.68
2022-11-04T01:23:48.118Z,-2.71
2022-11-04T01:26:24.945Z,-2.72
2022-11-04T01:28:55.300Z,-2.73
2022-11-04T01:31:30.733Z,-2.76
2022-11-04T01:33:59.980Z,-2.75
2022-11-04T01:36:28.953Z,-2.77
2022-11-04T01:38:59.325Z,-2.79
2022-11-04T01:41:31.073Z,-2.83
2022-11-04T01:44:02.185Z,-2.84
2022-11-04T01:46:34.454Z,-2.88
2022-11-04T01:49:26.735Z,-2.90
2022-11-04T01:52:11.474Z,-2.89
2022-11-04T01:54:42.449Z,-2.90
2022-11-04T01:57:15.282Z,-2.90
2022-11-04T01:59:43.960Z,-2.90
2022-11-04T02:02:12.109Z,-2.98
2022-11-04T02:04:41.525Z,-2.92
2022-11-04T02:07:12.182Z,-2.91
2022-11-04T02:09:43.029Z,-2.90
2022-11-04T02:12:29.568Z,-2.88
2022-11-04T02:14:59.355Z,-2.84
2022-11-04T02:17:40.567Z,-2.91
2022-11-04T02:20:17.210Z,-2.82
2022-11-04T02:23:13.744Z,-2.77
2022-11-04T02:26:24.255Z,-2.70
2022-11-04T02:29:17.982Z,-2.56
2022-11-04T02:32:01.694Z,-2.42
2022-11-04T02:34:55.404Z,-2.29
2022-11-04T02:38:11.190Z,-2.14
2022-11-04T02:41:19.597Z,-2.00
2022-11-04T02:44:19.175Z,-1.92
2022-11-04T02:46:47.738Z,-1.87
2022-11-04T02:49:27.661Z,-1.81
2022-11-04T02:52:16.512Z,-1.72
2022-11-04T02:55:04.690Z,-1.61
2022-11-04T02:57:37.501Z,-1.51
2022-11-04T03:00:09.232Z,-1.46
2022-11-04T03:02:46.698Z,-1.36
2022-11-04T03:05:20.237Z,-1.29
2022-11-04T03:07:53.688Z,-1.20
2022-11-04T03:10:52.158Z,-1.10
2022-11-04T03:13:28.397Z,-1.06
2022-11-04T03:16:01.871Z,-1.07
2022-11-04T03:18:51.889Z,-1.11
2022-11-04T03:21:21.520Z,-1.14
2022-11-04T03:23:49.280Z,-1.16
2022-11-04T03:26:32.268Z,-1.25
2022-11-04T03:29:12.885Z,-1.22
2022-11-04T03:32:02.469Z,-1.24
2022-11-04T03:34:31.280Z,-1.21
2022-11-04T03:37:00.423Z,-1.18
2022-11-04T03:39:29.628Z,-1.17
2022-11-04T03:42:01.570Z,-1.13
2022-11-04T03:44:31.316Z,-1.09
2022-11-04T03:47:00.604Z,-1.07
2022-11-04T03:49:29.078Z,-1.05
2022-11-04T03:51:58.878Z,-1.03
2022-11-04T03:54:27.060Z,-0.98
2022-11-04T03:57:14.795Z,-0.91
2022-11-04T04:00:05.702Z,-0.85
2022-11-04T04:02:58.021Z,-0.80
2022-11-04T04:05:41.666Z,-0.77
2022-11-04T04:12:05.237Z,-0.56
2022-11-04T04:14:49.906Z,-0.43
2022-11-04T04:17:53.782Z,-0.28
2022-11-04T04:20:27.870Z,-0.23
2022-11-04T04:23:52.754Z,-0.13
2022-11-04T04:26:41.923Z,-0.10
2022-11-04T04:29:12.898Z,-0.11
2022-11-04T04:31:51.267Z,-0.14
2022-11-04T04:34:29.694Z,-0.10
2022-11-04T04:37:24.833Z,-0.08
2022-11-04T04:40:23.873Z,-0.07
2022-11-04T04:43:12.395Z,-0.03
2022-11-04T04:45:47.472Z,0.00
2022-11-04T04:48:15.483Z,0.05
2022-11-04T04:50:49.762Z,0.10
2022-11-04T04:53:18.039Z,0.13
2022-11-04T04:55:46.028Z,0.15
2022-11-04T04:58:14.922Z,0.18
2022-11-04T05:00:42.842Z,0.21
2022-11-04T05:03:11.022Z,0.22
2022-11-04T05:05:39.348Z,0.26
2022-11-04T05:08:09.501Z,0.33
2022-11-04T05:10:37.746Z,0.37
2022-11-04T05:13:25.057Z,0.27
2022-11-04T05:15:54.269Z,0.40
2022-11-04T05:18:22.258Z,0.37
2022-11-04T05:20:52.427Z,0.44
2022-11-04T05:23:20.355Z,0.46
2022-11-04T05:25:48.318Z,0.47
2022-11-04T05:28:17.267Z,0.44
2022-11-04T05:30:45.375Z,0.48
2022-11-04T05:33:13.583Z,0.51
2022-11-04T05:35:42.644Z,0.53
2022-11-04T05:38:10.634Z,0.58
2022-11-04T05:40:38.630Z,0.60
2022-11-04T05:43:07.949Z,0.50
2022-11-04T05:45:35.951Z,0.66
2022-11-04T05:48:05.820Z,0.68
2022-11-04T05:50:35.700Z,0.65
2022-11-04T05:53:03.642Z,0.77
2022-11-04T05:55:31.623Z,0.78
2022-11-04T05:58:00.929Z,0.83
2022-11-04T06:00:29.372Z,0.83
2022-11-04T06:03:00.538Z,0.94
2022-11-04T06:05:30.456Z,0.98
2022-11-04T06:07:58.459Z,0.83
2022-11-04T06:10:26.901Z,1.02
2022-11-04T06:12:55.948Z,1.05
2022-11-04T06:15:24.001Z,1.08
2022-11-04T06:17:51.997Z,1.12
2022-11-04T06:20:20.125Z,1.17
2022-11-04T06:22:48.141Z,1.21
2022-11-04T06:25:16.329Z,1.26
2022-11-04T06:27:44.531Z,1.28
2022-11-04T06:30:13.401Z,1.24
2022-11-04T06:32:41.398Z,1.34
2022-11-04T06:35:12.368Z,1.30
2022-11-04T06:37:40.386Z,1.37
2022-11-04T06:40:08.904Z,1.40
2022-11-04T06:42:38.487Z,1.43
2022-11-04T06:45:06.828Z,1.46
2022-11-04T06:47:34.807Z,1.46
2022-11-04T06:50:04.421Z,1.48
2022-11-04T06:52:32.388Z,1.51
2022-11-04T06:55:00.437Z,1.52
2022-11-04T06:57:28.572Z,1.55
2022-11-04T06:59:56.784Z,1.58
2022-11-04T07:02:25.787Z,1.61
2022-11-04T07:07:30.303Z,1.63
2022-11-04T07:09:58.476Z,1.64
2022-11-04T07:12:26.496Z,1.63
2022-11-04T07:14:56.273Z,1.57
2022-11-04T07:17:24.414Z,1.66
2022-11-04T07:19:52.431Z,1.68
2022-11-04T07:22:20.461Z,1.65
2022-11-04T07:24:48.542Z,1.72
2022-11-04T07:27:16.815Z,1.50
2022-11-04T07:29:44.760Z,1.76
2022-11-04T07:32:12.876Z,1.77
2022-11-04T07:34:40.895Z,1.78
2022-11-04T07:37:08.832Z,1.87
2022-11-04T07:39:37.016Z,1.90
2022-11-04T07:42:04.982Z,1.92
2022-11-04T07:44:33.007Z,1.94
2022-11-04T07:47:01.280Z,1.93
2022-11-04T07:49:29.315Z,1.96
2022-11-04T07:51:57.323Z,2.00
2022-11-04T07:54:26.398Z,1.96
2022-11-04T07:56:54.429Z,2.00
2022-11-04T07:59:22.439Z,2.02
2022-11-04T08:01:52.749Z,2.03
2022-11-04T08:04:23.007Z,2.03
2022-11-04T08:06:50.994Z,2.05
2022-11-04T08:09:19.165Z,2.07
2022-11-04T08:11:47.136Z,2.07
2022-11-04T08:14:15.077Z,2.07
2022-11-04T08:16:44.723Z,2.06
2022-11-04T08:19:12.772Z,2.07
2022-11-04T08:21:40.780Z,2.06
2022-11-04T08:24:10.694Z,2.13
2022-11-04T08:26:39.311Z,2.12
2022-11-04T08:29:08.922Z,2.13
2022-11-04T08:31:39.793Z,2.12
2022-11-04T08:34:09.235Z,2.07
2022-11-04T08:36:41.561Z,2.16
2022-11-04T08:39:11.460Z,2.15
2022-11-04T08:41:42.963Z,2.18
2022-11-04T08:44:14.977Z,2.20
2022-11-04T08:46:48.242Z,2.22
2022-11-04T08:49:21.021Z,2.15
2022-11-04T08:51:58.040Z,2.19
2022-11-04T08:54:28.080Z,2.19
2022-11-04T08:56:56.598Z,2.19
2022-11-04T08:59:27.768Z,2.21
2022-11-04T09:01:55.985Z,2.24
2022-11-04T09:04:24.621Z,1.93
2022-11-04T09:06:54.027Z,2.19
2022-11-04T09:09:22.868Z,2.17
2022-11-04T09:11:50.874Z,2.18
2022-11-04T09:14:23.643Z,2.18
2022-11-04T09:16:51.581Z,2.18
2022-11-04T09:19:19.538Z,2.18
2022-11-04T09:21:47.698Z,2.19
2022-11-04T09:24:15.611Z,2.19
2022-11-04T09:26:45.413Z,2.15
2022-11-04T09:29:14.650Z,2.19
2022-11-04T09:31:44.054Z,2.20
2022-11-04T09:34:12.073Z,2.30
2022-11-04T09:36:40.887Z,2.28
2022-11-04T09:39:08.881Z,2.22
2022-11-04T09:42:08.042Z,2.17
2022-11-04T09:45:26.528Z,2.12
2022-11-04T09:48:05.895Z,2.11
2022-11-04T09:50:45.725Z,2.12
2022-11-04T09:53:22.368Z,2.08
2022-11-04T09:55:58.320Z,2.02
2022-11-04T09:58:26.783Z,1.99
2022-11-04T10:01:05.303Z,1.94
2022-11-04T10:03:51.417Z,1.88
2022-11-04T10:06:47.660Z,1.78
2022-11-04T10:09:23.842Z,1.74
2022-11-04T10:12:23.518Z,1.66
2022-11-04T10:15:09.484Z,1.59
2022-11-04T10:17:53.638Z,1.51
2022-11-04T10:20:33.416Z,1.43
2022-11-04T10:23:34.729Z,1.35
2022-11-04T10:26:20.105Z,1.26
2022-11-04T10:28:59.654Z,1.16
2022-11-04T10:31:27.654Z,1.12
2022-11-04T10:34:01.871Z,0.91
2022-11-04T10:36:31.775Z,1.05
2022-11-04T10:39:03.575Z,0.98
2022-11-04T10:41:36.248Z,0.87
2022-11-04T10:44:22.680Z,0.78
2022-11-04T10:47:15.763Z,0.71
2022-11-04T10:50:06.860Z,0.63
2022-11-04T10:52:36.712Z,0.57
2022-11-04T10:55:34.777Z,0.48
2022-11-04T10:58:03.496Z,0.38
2022-11-04T11:00:44.656Z,0.38
2022-11-04T11:03:42.344Z,0.30
2022-11-04T11:06:30.721Z,0.24
2022-11-04T11:09:15.448Z,0.17
2022-11-04T11:11:50.903Z,0.12
2022-11-04T11:14:31.131Z,0.05
2022-11-04T11:17:22.757Z,-0.02
2022-11-04T11:20:08.587Z,-0.12
2022-11-04T11:22:42.338Z,-0.20
2022-11-04T11:25:25.678Z,-0.27
2022-11-04T11:28:12.743Z,-0.34
2022-11-04T11:31:00.869Z,-0.37
2022-11-04T11:33:39.644Z,-0.44
2022-11-04T11:36:27.743Z,-0.50
2022-11-04T11:39:07.210Z,-0.57
2022-11-04T11:41:53.212Z,-0.63
2022-11-04T11:44:40.274Z,-0.69
2022-11-04T11:47:28.576Z,-0.72
2022-11-04T11:50:19.664Z,-0.75
2022-11-04T11:52:49.847Z,-0.76
2022-11-04T11:55:26.961Z,-0.80
2022-11-04T12:01:19.362Z,-0.90
2022-11-04T12:10:50.434Z,-1.15
2022-11-04T12:13:28.750Z,-1.17
2022-11-04T12:16:03.854Z,-1.19
2022-11-04T12:19:05.518Z,-1.20
2022-11-04T12:21:40.246Z,-1.21
2022-11-04T12:24:35.412Z,-1.27
2022-11-04T12:27:23.208Z,-1.31
2022-11-04T12:30:12.696Z,-1.39
2022-11-04T12:32:46.964Z,-1.44
2022-11-04T12:35:45.251Z,-1.57
2022-11-04T12:38:37.338Z,-1.59
2022-11-04T12:41:46.825Z,-1.66
2022-11-04T12:44:38.287Z,-1.71
2022-11-04T12:48:00.181Z,-1.75
2022-11-04T12:51:12.399Z,-1.77
2022-11-04T12:53:51.871Z,-1.82
2022-11-04T12:56:31.302Z,-1.82
2022-11-04T12:59:34.965Z,-1.86
2022-11-04T13:02:18.159Z,-1.79
2022-11-04T13:04:58.186Z,-1.82
2022-11-04T13:07:33.826Z,-1.88
2022-11-04T13:10:08.391Z,-1.95
2022-11-04T13:12:42.031Z,-2.21
2022-11-04T13:15:29.467Z,-2.03
2022-11-04T13:18:07.359Z,-2.07
2022-11-04T13:20:51.254Z,-2.14
2022-11-04T13:23:37.681Z,-2.11
2022-11-04T13:26:12.763Z,-2.12
2022-11-04T13:28:44.715Z,-2.22
2022-11-04T13:31:40.549Z,-2.16
2022-11-04T13:34:27.293Z,-2.19
2022-11-04T13:37:18.366Z,-2.24
2022-11-04T13:40:15.062Z,-2.28
2022-11-04T13:42:46.370Z,-2.32
2022-11-04T13:45:21.447Z,-2.36
2022-11-04T13:47:54.203Z,-2.39
2022-11-04T13:50:38.509Z,-2.47
2022-11-04T13:53:10.498Z,-2.53
2022-11-04T13:55:51.245Z,-2.58
2022-11-04T13:58:27.865Z,-2.61
2022-11-04T14:01:27.851Z,-2.66
2022-11-04T14:04:20.777Z,-2.71
2022-11-04T14:06:53.203Z,-2.75
2022-11-04T14:09:32.887Z,-2.81
2022-11-04T14:12:11.792Z,-2.83
2022-11-04T14:14:43.176Z,-2.82
2022-11-04T14:17:34.371Z,-2.83
2022-11-04T14:20:12.840Z,-2.85
2022-11-04T14:23:00.112Z,-2.95
2022-11-04T14:25:44.935Z,-2.90
2022-11-04T14:28:15.748Z,-2.92
2022-11-04T14:30:46.374Z,-2.96
2022-11-04T14:33:33.811Z,-2.99
2022-11-04T14:36:19.954Z,-3.03
2022-11-04T14:38:56.870Z,-3.04
2022-11-04T14:41:33.090Z,-3.04
2022-11-04T14:44:13.560Z,-3.10
2022-11-04T14:46:47.605Z,-3.09
2022-11-04T14:49:40.401Z,-3.12
2022-11-04T14:52:25.250Z,-3.13
2022-11-04T14:55:08.959Z,-3.16
2022-11-04T14:57:42.204Z,-3.16
2022-11-04T15:00:35.018Z,-3.18
2022-11-04T15:03:45.486Z,-3.19
2022-11-04T15:06:07.495Z,-3.20
2022-11-04T15:08:42.455Z,-3.23
2022-11-04T15:11:19.800Z,-3.24
2022-11-04T15:13:50.739Z,-3.23
2022-11-04T15:16:29.951Z,-3.24
2022-11-04T15:19:00.405Z,-3.26
2022-11-04T15:21:28.867Z,-3.27
2022-11-04T15:23:58.471Z,-3.27
2022-11-04T15:26:30.782Z,-3.25
2022-11-04T15:29:10.573Z,-3.27
2022-11-04T15:31:39.992Z,-3.33
2022-11-04T15:34:14.233Z,-3.40
2022-11-04T15:36:44.773Z,-3.45
2022-11-04T15:39:24.594Z,-3.50
2022-11-04T15:42:18.608Z,-3.53
2022-11-04T15:44:55.586Z,-3.57
2022-11-04T15:47:29.753Z,-3.59
2022-11-04T15:50:23.168Z,-3.59
2022-11-04T15:52:58.475Z,-3.54
2022-11-04T15:55:29.044Z,-3.57
2022-11-04T15:57:57.780Z,-3.58
2022-11-04T16:00:32.894Z,-3.58
2022-11-04T16:03:01.894Z,-3.58
2022-11-04T16:05:37.961Z,-3.62
2022-11-04T16:08:25.773Z,-3.68
2022-11-04T16:11:13.416Z,-3.75
2022-11-04T16:13:44.461Z,-3.82
2022-11-04T16:16:18.035Z,-3.90
2022-11-04T16:18:50.595Z,-3.96
2022-11-04T16:21:35.853Z,-4.04
2022-11-04T16:24:30.698Z,-4.07
2022-11-04T16:26:59.391Z,-4.10
2022-11-04T16:29:31.927Z,-4.42
2022-11-04T16:32:25.691Z,-4.21
2022-11-04T16:34:59.790Z,-4.24
2022-11-04T16:37:28.795Z,-4.26
2022-11-04T16:40:00.367Z,-4.30
2022-11-04T16:42:28.427Z,-4.33
2022-11-04T16:45:03.130Z,-4.39
2022-11-04T16:47:37.565Z,-4.39
2022-11-04T16:50:18.670Z,-4.42
2022-11-04T16:52:47.026Z,-4.47
2022-11-04T16:55:16.356Z,-4.54
2022-11-04T16:57:46.419Z,-4.62
2022-11-04T17:00:27.417Z,-4.57
2022-11-04T17:02:55.497Z,-4.57
2022-11-04T17:05:23.462Z,-4.69
2022-11-04T17:07:56.342Z,-4.62
2022-11-04T17:10:29.526Z,-4.61
2022-11-04T17:12:57.671Z,-4.63
2022-11-04T17:15:26.829Z,-4.67
2022-11-04T17:17:54.840Z,-4.68
2022-11-04T17:20:23.699Z,-4.69
2022-11-04T17:22:53.804Z,-4.70
2022-11-04T17:25:24.788Z,-4.71
2022-11-04T17:27:52.975Z,-4.71
2022-11-04T17:30:23.996Z,-4.72
2022-11-04T17:32:52.087Z,-4.78
2022-11-04T17:35:20.132Z,-4.72
2022-11-04T17:37:48.352Z,-4.71
2022-11-04T17:40:19.089Z,-4.69
2022-11-04T17:43:11.919Z,-4.69
2022-11-04T17:45:42.701Z,-4.69
2022-11-04T17:48:11.915Z,-4.68
2022-11-04T17:50:42.293Z,-4.72
2022-11-04T17:53:10.843Z,-4.81
2022-11-04T17:55:42.092Z,-4.76
2022-11-04T17:58:10.268Z,-4.81
2022-11-04T18:00:38.289Z,-4.85
2022-11-04T18:03:07.296Z,-4.81
2022-11-04T18:05:36.513Z,-4.82
2022-11-04T18:08:04.702Z,-4.82
2022-11-04T18:10:32.676Z,-4.82
2022-11-04T18:13:02.351Z,-4.81
2022-11-04T18:15:31.127Z,-4.83
2022-11-04T18:17:59.308Z,-4.88
2022-11-04T18:20:29.603Z,-4.81
2022-11-04T18:23:00.697Z,-4.79
2022-11-04T18:25:28.770Z,-4.87
2022-11-04T18:27:56.945Z,-4.76
2022-11-04T18:30:24.970Z,-4.72
2022-11-04T18:32:53.245Z,-4.69
2022-11-04T18:35:21.360Z,-4.69
2022-11-04T18:37:49.433Z,-4.72
2022-11-04T18:40:18.477Z,-4.70
2022-11-04T18:42:47.632Z,-4.70
2022-11-04T18:45:15.603Z,-4.68
2022-11-04T18:47:43.612Z,-4.67
2022-11-04T18:50:13.415Z,-4.68
2022-11-04T18:52:41.834Z,-4.72
2022-11-04T18:55:10.315Z,-4.80
2022-11-04T18:57:38.391Z,-4.83
2022-11-04T19:00:07.004Z,-4.89
2022-11-04T19:02:37.666Z,-4.96
2022-11-04T19:05:06.117Z,-5.01
2022-11-04T19:07:34.535Z,-5.06
2022-11-04T19:10:02.589Z,-5.05
2022-11-04T19:12:50.005Z,-5.01
2022-11-04T19:15:18.096Z,-4.96
2022-11-04T19:17:46.051Z,-4.95
2022-11-04T19:20:15.317Z,-4.96
2022-11-04T19:22:43.370Z,-5.03
2022-11-04T19:25:11.732Z,-5.13
2022-11-04T19:27:40.742Z,-5.11
2022-11-04T19:30:09.236Z,-5.16
2022-11-04T19:32:37.653Z,-5.16
2022-11-04T19:35:07.170Z,-5.27
2022-11-04T19:37:34.797Z,-5.24
2022-11-04T19:40:02.775Z,-5.25
2022-11-04T19:42:50.384Z,-5.30
2022-11-04T19:45:19.048Z,-5.31
2022-11-04T19:47:47.048Z,-5.35
2022-11-04T19:50:16.751Z,-5.45
2022-11-04T19:52:44.994Z,-5.34
2022-11-04T19:55:13.109Z,-5.35
2022-11-04T19:57:41.679Z,-5.33
2022-11-04T20:00:11.183Z,-5.32
2022-11-04T20:02:39.022Z,-5.31
2022-11-04T20:05:10.610Z,-5.34
2022-11-04T20:07:39.987Z,-5.36
2022-11-04T20:10:08.910Z,-5.36
2022-11-04T20:12:56.158Z,-5.37
2022-11-04T20:15:25.712Z,-5.35
2022-11-04T20:17:53.700Z,-5.33
2022-11-04T20:20:21.890Z,-5.33
2022-11-04T20:22:49.826Z,-5.30
2022-11-04T20:25:17.827Z,-5.26
2022-11-04T20:27:47.334Z,-5.26
2022-11-04T20:30:14.958Z,-5.22
2022-11-04T20:32:42.948Z,-5.22
2022-11-04T20:35:11.163Z,-5.18
2022-11-04T20:37:39.319Z,-5.23
2022-11-04T20:40:08.567Z,-5.16
2022-11-04T20:42:37.695Z,-5.18
2022-11-04T20:45:06.043Z,-5.23
2022-11-04T20:47:33.990Z,-5.22
2022-11-04T20:50:03.632Z,-5.22
2022-11-04T20:52:31.716Z,-5.18
2022-11-04T20:54:59.748Z,-5.18
2022-11-04T20:57:29.480Z,-5.18
2022-11-04T20:59:57.470Z,-5.16
2022-11-04T21:02:26.701Z,-5.18
2022-11-04T21:04:55.465Z,-5.25
2022-11-04T21:07:23.723Z,-5.30
2022-11-04T21:09:51.904Z,-5.30
2022-11-04T21:12:20.339Z,-5.31
2022-11-04T21:14:48.340Z,-5.31
2022-11-04T21:17:16.421Z,-5.34
2022-11-04T21:19:44.605Z,-5.36
2022-11-04T21:22:12.581Z,-5.33
2022-11-04T21:24:41.089Z,-5.26
2022-11-04T21:27:09.625Z,-5.27
2022-11-04T21:29:37.661Z,-5.21
2022-11-04T21:32:05.902Z,-5.27
2022-11-04T21:34:34.087Z,-5.30
2022-11-04T21:37:16.769Z,-5.26
2022-11-04T21:39:47.415Z,-5.16
2022-11-04T21:42:15.339Z,-5.06
2022-11-04T21:44:43.309Z,-4.92
2022-11-04T21:47:11.389Z,-4.82
2022-11-04T21:49:39.279Z,-4.70
2022-11-04T21:52:07.172Z,-4.59
2022-11-04T21:54:36.262Z,-4.51
2022-11-04T21:57:04.280Z,-4.41
2022-11-04T21:59:33.064Z,-4.33
2022-11-04T22:02:01.870Z,-4.22
2022-11-04T22:04:30.084Z,-4.15
2022-11-04T22:06:58.050Z,-4.07
2022-11-04T22:09:26.284Z,-4.02
2022-11-04T22:11:54.314Z,-3.92
2022-11-04T22:15:18.651Z,-3.84
2022-11-04T22:18:05.168Z,-3.76
2022-11-04T22:20:35.455Z,-3.76
2022-11-04T22:23:24.215Z,-3.65
2022-11-04T22:25:52.471Z,-3.60
2022-11-04T22:28:20.618Z,-3.56
2022-11-04T22:30:48.689Z,-3.50
2022-11-04T22:33:17.523Z,-3.43
2022-11-04T22:35:46.830Z,-3.39
2022-11-04T22:38:15.607Z,-3.41
2022-11-04T22:40:45.616Z,-3.30
2022-11-04T22:43:14.528Z,-3.28
2022-11-04T22:45:42.439Z,-3.27
2022-11-04T22:48:10.532Z,-3.25
2022-11-04T22:50:38.542Z,-3.21
2022-11-04T22:53:06.447Z,-3.18
2022-11-04T22:55:36.998Z,-3.13
2022-11-04T22:58:05.035Z,-3.12
2022-11-04T23:00:33.065Z,-3.14
2022-11-04T23:03:01.416Z,-3.04
2022-11-04T23:05:32.788Z,-3.06
2022-11-04T23:08:01.255Z,-2.99
2022-11-04T23:10:51.149Z,-2.95
2022-11-04T23:13:37.487Z,-2.91
2022-11-04T23:16:24.279Z,-2.86
2022-11-04T23:18:52.601Z,-2.80
2022-11-04T23:21:41.140Z,-2.75
2022-11-04T23:24:27.248Z,-2.70
2022-11-04T23:26:55.388Z,-2.64
2022-11-04T23:29:41.836Z,-2.61
2022-11-04T23:32:10.092Z,-2.58
2022-11-04T23:34:56.274Z,-2.56
2022-11-04T23:37:24.355Z,-2.54
2022-11-04T23:39:52.395Z,-2.52
2022-11-04T23:42:22.148Z,-2.52
2022-11-04T23:45:15.440Z,-2.53
2022-11-04T23:48:06.684Z,-2.52
2022-11-04T23:50:54.401Z,-2.52
2022-11-04T23:53:41.030Z,-2.52
2022-11-04T23:56:30.963Z,-2.54
2022-11-04T23:59:17.383Z,-2.49
